createdAt,value
2023-11-21T00:00:37.438Z,2.10
2023-11-21T00:03:08.434Z,2.30
2023-11-21T00:05:39.901Z,1.90
2023-11-21T00:08:11.830Z,1.50
2023-11-21T00:10:42.810Z,1.90
2023-11-21T00:13:14.918Z,1.90
2023-11-21T00:15:45.904Z,1.70
2023-11-21T00:18:17.906Z,1.80
2023-11-21T00:20:48.960Z,1.90
2023-11-21T00:23:19.729Z,1.80
2023-11-21T00:25:50.574Z,1.80
2023-11-21T00:28:21.555Z,1.60
2023-11-21T00:30:52.524Z,2.00
2023-11-21T00:33:23.329Z,1.70
2023-11-21T00:35:54.205Z,1.60
2023-11-21T00:38:25.488Z,1.80
2023-11-21T00:40:57.644Z,2.00
2023-11-21T00:43:28.829Z,1.40
2023-11-21T00:45:59.568Z,1.60
2023-11-21T00:48:30.252Z,1.70
2023-11-21T00:51:01.301Z,1.50
2023-11-21T00:53:33.308Z,1.90
2023-11-21T00:56:04.099Z,1.80
2023-11-21T00:58:35.001Z,1.60
2023-11-21T01:01:05.957Z,1.60
2023-11-21T01:03:36.786Z,1.60
2023-11-21T01:06:10.042Z,1.90
2023-11-21T01:08:40.742Z,1.60
2023-11-21T01:11:13.583Z,1.40
2023-11-21T01:13:46.062Z,1.60
2023-11-21T01:16:17.277Z,1.60
2023-11-21T01:18:48.246Z,1.70
2023-11-21T01:21:19.154Z,1.30
2023-11-21T01:23:50.718Z,1.30
2023-11-21T01:26:21.567Z,1.60
2023-11-21T01:28:52.493Z,1.90
2023-11-21T01:31:23.441Z,1.70
2023-11-21T01:33:54.787Z,1.40
2023-11-21T01:36:25.816Z,1.80
2023-11-21T01:38:56.516Z,1.60
2023-11-21T01:41:28.150Z,1.70
2023-11-21T01:43:59.313Z,1.50
2023-11-21T01:46:30.551Z,1.50
2023-11-21T01:49:01.718Z,1.40
2023-11-21T01:51:32.715Z,1.70
2023-11-21T01:54:12.134Z,1.90
2023-11-21T01:56:48.169Z,1.50
2023-11-21T01:59:23.256Z,1.70
2023-11-21T02:01:54.074Z,1.70
2023-11-21T02:04:25.163Z,1.40
2023-11-21T02:09:31.243Z,1.70
2023-11-21T02:12:02.085Z,1.80
2023-11-21T02:14:34.654Z,1.30
2023-11-21T02:17:05.718Z,1.50
2023-11-21T02:19:37.343Z,1.50
2023-11-21T02:22:09.363Z,1.60
2023-11-21T02:24:40.077Z,1.70
2023-11-21T02:27:11.394Z,1.30
2023-11-21T02:29:42.265Z,1.40
2023-11-21T02:32:13.328Z,1.30
2023-11-21T02:34:44.838Z,1.40
2023-11-21T02:37:16.985Z,1.60
2023-11-21T02:39:47.887Z,1.80
2023-11-21T02:42:18.713Z,1.50
2023-11-21T02:44:49.796Z,2.10
2023-11-21T02:47:20.571Z,1.70
2023-11-21T02:49:53.449Z,1.30
2023-11-21T02:52:24.942Z,1.30
2023-11-21T02:54:55.965Z,1.70
2023-11-21T02:57:26.997Z,2.00
2023-11-21T02:59:58.063Z,1.40
2023-11-21T03:02:29.519Z,1.50
2023-11-21T03:05:00.379Z,1.60
2023-11-21T03:07:31.506Z,1.40
2023-11-21T03:10:02.456Z,1.30
2023-11-21T03:12:33.195Z,1.40
2023-11-21T03:15:04.155Z,1.50
2023-11-21T03:17:36.198Z,1.30
2023-11-21T03:20:12.576Z,1.30
2023-11-21T03:22:43.770Z,1.30
2023-11-21T03:25:15.368Z,1.50
2023-11-21T03:27:46.508Z,1.40
2023-11-21T03:30:18.045Z,1.50
2023-11-21T03:32:49.112Z,1.40
2023-11-21T03:35:22.254Z,1.40
2023-11-21T03:37:53.063Z,1.20
2023-11-21T03:40:23.913Z,1.10
2023-11-21T03:42:54.636Z,1.30
2023-11-21T03:45:25.584Z,1.60
2023-11-21T03:47:57.055Z,1.40
2023-11-21T03:50:28.498Z,1.20
2023-11-21T03:52:59.270Z,1.30
2023-11-21T03:55:32.470Z,1.30
2023-11-21T03:58:04.268Z,1.10
2023-11-21T04:00:35.115Z,1.50
2023-11-21T04:03:06.238Z,1.10
2023-11-21T04:05:37.320Z,1.30
2023-11-21T04:08:08.363Z,1.30
2023-11-21T04:10:40.822Z,1.30
2023-11-21T04:13:11.865Z,1.20
2023-11-21T04:15:42.599Z,1.20
2023-11-21T04:18:13.361Z,1.00
2023-11-21T04:20:44.289Z,1.10
2023-11-21T04:23:16.372Z,1.10
2023-11-21T04:25:47.301Z,1.10
2023-11-21T04:28:18.469Z,1.40
2023-11-21T04:30:49.542Z,1.10
2023-11-21T04:33:20.735Z,1.40
2023-11-21T04:35:51.600Z,1.60
2023-11-21T04:38:22.427Z,1.20
2023-11-21T04:40:53.523Z,1.50
2023-11-21T04:43:24.533Z,1.20
2023-11-21T04:45:55.414Z,1.40
2023-11-21T04:48:26.399Z,1.30
2023-11-21T04:50:57.441Z,1.20
2023-11-21T04:53:30.521Z,1.40
2023-11-21T04:56:01.428Z,1.20
2023-11-21T04:58:34.200Z,1.10
2023-11-21T05:01:07.991Z,1.00
2023-11-21T05:03:40.470Z,1.30
2023-11-21T05:06:13.251Z,1.30
2023-11-21T05:08:44.169Z,1.10
2023-11-21T05:11:16.124Z,1.30
2023-11-21T05:13:46.859Z,1.30
2023-11-21T05:16:18.111Z,1.20
2023-11-21T05:18:51.701Z,1.20
2023-11-21T05:21:22.664Z,1.10
2023-11-21T05:23:53.762Z,1.40
2023-11-21T05:26:24.480Z,1.40
2023-11-21T05:28:55.451Z,1.70
2023-11-21T05:31:26.635Z,1.80
2023-11-21T05:33:58.290Z,1.80
2023-11-21T05:36:29.677Z,2.60
2023-11-21T05:39:00.492Z,2.60
2023-11-21T05:41:31.618Z,2.50
2023-11-21T05:44:03.397Z,1.80
2023-11-21T05:46:34.682Z,2.20
2023-11-21T05:49:05.733Z,2.50
2023-11-21T05:51:36.552Z,2.00
2023-11-21T05:54:09.196Z,2.10
2023-11-21T05:56:40.156Z,2.00
2023-11-21T05:59:11.396Z,2.00
2023-11-21T06:01:42.486Z,1.70
2023-11-21T06:04:14.121Z,1.90
2023-11-21T06:06:45.422Z,2.20
2023-11-21T06:09:16.207Z,1.90
2023-11-21T06:11:47.249Z,1.60
2023-11-21T06:14:19.441Z,2.30
2023-11-21T06:16:52.391Z,1.80
2023-11-21T06:19:23.499Z,1.70
2023-11-21T06:21:54.396Z,1.30
2023-11-21T06:24:25.114Z,2.20
2023-11-21T06:26:55.921Z,1.50
2023-11-21T06:29:27.967Z,1.70
2023-11-21T06:31:59.904Z,1.50
2023-11-21T06:34:33.303Z,1.60
2023-11-21T06:37:04.345Z,1.70
2023-11-21T06:39:35.434Z,1.30
2023-11-21T06:42:06.665Z,1.30
2023-11-21T06:44:38.652Z,1.30
2023-11-21T06:47:10.030Z,1.50
2023-11-21T06:49:40.962Z,1.50
2023-11-21T06:52:12.295Z,1.50
2023-11-21T06:54:43.004Z,1.70
2023-11-21T06:57:14.567Z,1.40
2023-11-21T06:59:45.587Z,1.50
2023-11-21T07:02:19.874Z,1.30
2023-11-21T07:04:50.848Z,1.30
2023-11-21T07:07:22.119Z,1.60
2023-11-21T07:09:53.248Z,1.60
2023-11-21T07:12:25.025Z,1.80
2023-11-21T07:14:56.142Z,1.20
2023-11-21T07:17:27.014Z,1.50
2023-11-21T07:19:58.083Z,1.40
2023-11-21T07:22:28.931Z,1.60
2023-11-21T07:24:59.626Z,1.80
2023-11-21T07:27:30.577Z,1.90
2023-11-21T07:30:01.388Z,1.30
2023-11-21T07:32:33.485Z,1.40
2023-11-21T07:35:04.466Z,1.00
2023-11-21T07:37:35.280Z,1.80
2023-11-21T07:40:10.026Z,1.00
2023-11-21T07:42:42.702Z,1.50
2023-11-21T07:45:14.568Z,1.30
2023-11-21T07:47:45.495Z,1.40
2023-11-21T07:50:16.835Z,1.20
2023-11-21T07:52:47.736Z,1.10
2023-11-21T07:55:18.952Z,1.20
2023-11-21T07:57:49.665Z,1.20
2023-11-21T08:00:22.445Z,1.20
2023-11-21T08:02:53.234Z,1.10
2023-11-21T08:05:28.350Z,1.10
2023-11-21T08:08:05.811Z,1.20
2023-11-21T08:10:36.825Z,1.00
2023-11-21T08:13:10.265Z,1.40
2023-11-21T08:15:41.733Z,0.90
2023-11-21T08:18:12.602Z,1.30
2023-11-21T08:20:43.943Z,1.80
2023-11-21T08:23:16.630Z,1.60
2023-11-21T08:25:48.526Z,1.40
2023-11-21T08:28:19.646Z,1.10
2023-11-21T08:30:51.225Z,1.10
2023-11-21T08:33:22.230Z,1.20
2023-11-21T08:35:53.091Z,1.00
2023-11-21T08:38:24.004Z,1.10
2023-11-21T08:40:55.591Z,1.00
2023-11-21T08:43:28.715Z,1.60
2023-11-21T08:45:59.560Z,1.00
2023-11-21T08:48:31.810Z,1.50
2023-11-21T08:51:02.586Z,1.30
2023-11-21T08:53:34.025Z,1.00
2023-11-21T08:56:05.561Z,1.50
2023-11-21T08:58:38.134Z,1.10
2023-11-21T09:01:09.527Z,1.10
2023-11-21T09:03:43.094Z,1.00
2023-11-21T09:06:15.451Z,1.00
2023-11-21T09:08:46.289Z,1.10
2023-11-21T09:11:16.984Z,1.20
2023-11-21T09:13:48.268Z,1.50
2023-11-21T09:16:19.505Z,1.20
2023-11-21T09:18:50.616Z,0.90
2023-11-21T09:21:21.477Z,1.10
2023-11-21T09:23:52.718Z,1.10
2023-11-21T09:26:23.421Z,0.90
2023-11-21T09:28:54.493Z,0.90
2023-11-21T09:31:25.828Z,1.10
2023-11-21T09:33:56.592Z,1.00
2023-11-21T09:36:29.292Z,1.10
2023-11-21T09:39:01.445Z,0.80
2023-11-21T09:41:42.940Z,1.00
2023-11-21T09:44:16.044Z,1.00
2023-11-21T09:46:50.855Z,0.80
2023-11-21T09:49:26.381Z,1.10
2023-11-21T09:51:59.193Z,1.00
2023-11-21T09:54:30.440Z,1.00
2023-11-21T09:57:01.503Z,0.80
2023-11-21T09:59:34.777Z,1.10
2023-11-21T10:02:06.880Z,0.70
2023-11-21T10:04:38.032Z,0.90
2023-11-21T10:07:10.574Z,0.90
2023-11-21T10:09:42.140Z,1.10
2023-11-21T10:12:14.590Z,0.90
2023-11-21T10:14:45.828Z,1.10
2023-11-21T10:17:19.842Z,0.70
2023-11-21T10:19:51.830Z,0.90
2023-11-21T10:22:24.526Z,1.20
2023-11-21T10:24:55.888Z,0.90
2023-11-21T10:27:29.266Z,0.80
2023-11-21T10:30:00.012Z,1.30
2023-11-21T10:32:33.824Z,1.00
2023-11-21T10:35:07.931Z,0.90
2023-11-21T10:37:40.861Z,1.00
2023-11-21T10:40:14.230Z,0.70
2023-11-21T10:42:45.369Z,1.00
2023-11-21T10:45:16.509Z,0.80
2023-11-21T10:47:48.273Z,1.00
2023-11-21T10:50:22.440Z,0.80
2023-11-21T10:52:53.301Z,1.00
2023-11-21T10:55:26.130Z,0.90
2023-11-21T10:57:59.615Z,0.90
2023-11-21T11:00:31.276Z,1.10
2023-11-21T11:03:03.303Z,1.20
2023-11-21T11:05:34.446Z,0.90
2023-11-21T11:08:10.146Z,0.90
2023-11-21T11:10:41.180Z,1.00
2023-11-21T11:13:12.632Z,1.00
2023-11-21T11:15:44.189Z,1.40
2023-11-21T11:18:16.242Z,1.00
2023-11-21T11:20:50.233Z,0.70
2023-11-21T11:26:18.815Z,0.70
2023-11-21T11:28:54.355Z,0.90
2023-11-21T11:31:40.123Z,1.00
2023-11-21T11:34:20.060Z,0.90
2023-11-21T11:36:57.597Z,0.70
2023-11-21T11:39:37.762Z,0.90
2023-11-21T11:44:55.677Z,0.90
2023-11-21T11:47:29.958Z,0.80
2023-11-21T11:50:08.685Z,1.10
2023-11-21T11:52:42.144Z,0.90
2023-11-21T11:55:14.711Z,0.90
2023-11-21T11:57:48.188Z,1.00
2023-11-21T12:00:22.097Z,0.90
2023-11-21T12:02:55.154Z,1.10
2023-11-21T12:05:28.964Z,1.00
2023-11-21T12:10:31.391Z,0.80
2023-11-21T12:13:06.853Z,1.00
2023-11-21T12:15:39.392Z,1.10
2023-11-21T12:18:11.195Z,0.90
2023-11-21T12:20:44.096Z,0.90
2023-11-21T12:23:16.475Z,0.90
2023-11-21T12:25:47.577Z,0.80
2023-11-21T12:28:18.875Z,0.90
2023-11-21T12:30:49.738Z,0.80
2023-11-21T12:33:20.947Z,0.80
2023-11-21T12:35:53.278Z,0.90
2023-11-21T12:38:25.909Z,1.00
2023-11-21T12:40:58.114Z,1.20
2023-11-21T12:43:29.373Z,1.00
2023-11-21T12:46:10.634Z,0.90
2023-11-21T12:48:44.984Z,1.00
2023-11-21T12:51:17.310Z,1.60
2023-11-21T12:53:49.074Z,1.40
2023-11-21T12:56:21.493Z,1.50
2023-11-21T12:58:53.186Z,1.60
2023-11-21T13:01:29.810Z,1.20
2023-11-21T13:04:01.065Z,1.60
2023-11-21T13:06:39.771Z,1.70
2023-11-21T13:09:12.169Z,1.80
2023-11-21T13:11:42.874Z,2.00
2023-11-21T13:14:14.170Z,2.90
2023-11-21T13:16:47.891Z,2.60
2023-11-21T13:19:20.576Z,3.40
2023-11-21T13:21:51.332Z,3.40
2023-11-21T13:24:23.028Z,3.10
2023-11-21T13:26:53.770Z,2.90
2023-11-21T13:29:26.940Z,2.80
2023-11-21T13:31:58.132Z,3.10
2023-11-21T13:34:32.149Z,3.20
2023-11-21T13:37:08.938Z,3.50
2023-11-21T13:39:45.470Z,3.20
2023-11-21T13:42:17.821Z,3.60
2023-11-21T13:44:50.326Z,4.80
2023-11-21T13:47:21.601Z,3.80
2023-11-21T13:49:52.835Z,3.80
2023-11-21T13:52:27.569Z,3.80
2023-11-21T13:54:59.248Z,3.60
2023-11-21T13:57:30.111Z,3.80
2023-11-21T14:00:02.704Z,3.80
2023-11-21T14:02:41.091Z,3.90
2023-11-21T14:05:14.886Z,3.90
2023-11-21T14:07:49.503Z,4.10
2023-11-21T14:10:23.398Z,4.10
2023-11-21T14:12:54.415Z,4.30
2023-11-21T14:15:25.379Z,5.20
2023-11-21T14:17:56.827Z,4.30
2023-11-21T14:20:27.793Z,3.90
2023-11-21T14:22:58.817Z,3.90
2023-11-21T14:25:29.739Z,4.50
2023-11-21T14:28:00.594Z,4.70
2023-11-21T14:30:33.167Z,4.10
2023-11-21T14:33:04.376Z,4.60
2023-11-21T14:35:35.821Z,4.00
2023-11-21T14:38:07.542Z,4.20
2023-11-21T14:40:39.037Z,4.30
2023-11-21T14:43:10.030Z,4.60
2023-11-21T14:45:40.872Z,4.60
2023-11-21T14:48:17.395Z,4.40
2023-11-21T14:51:14.213Z,4.20
2023-11-21T14:53:54.748Z,4.60
2023-11-21T14:56:31.834Z,4.30
2023-11-21T14:59:10.090Z,4.80
2023-11-21T15:01:47.530Z,4.80
2023-11-21T15:04:31.209Z,4.30
2023-11-21T15:07:02.468Z,4.90
2023-11-21T15:09:42.866Z,5.30
2023-11-21T15:12:17.078Z,5.20
2023-11-21T15:14:53.374Z,4.60
2023-11-21T15:17:27.676Z,4.60
2023-11-21T15:19:58.989Z,4.80
2023-11-21T15:22:29.938Z,5.00
2023-11-21T15:25:05.732Z,5.40
2023-11-21T15:27:37.596Z,5.60
2023-11-21T15:30:10.626Z,5.20
2023-11-21T15:32:41.742Z,4.50
2023-11-21T15:35:15.841Z,5.40
2023-11-21T15:37:47.383Z,6.00
2023-11-21T15:40:18.926Z,5.00
2023-11-21T15:42:50.895Z,5.80
2023-11-21T15:45:25.117Z,4.80
2023-11-21T15:47:57.621Z,5.30
2023-11-21T15:50:30.345Z,5.30
2023-11-21T15:53:07.077Z,5.50
2023-11-21T15:55:43.629Z,5.20
2023-11-21T15:58:15.124Z,4.80
2023-11-21T16:00:46.390Z,4.90
2023-11-21T16:03:17.616Z,5.70
2023-11-21T16:05:49.432Z,5.20
2023-11-21T16:08:22.423Z,4.90
2023-11-21T16:10:53.663Z,4.80
2023-11-21T16:13:25.005Z,4.70
2023-11-21T16:15:56.290Z,4.90
2023-11-21T16:18:28.035Z,5.40
2023-11-21T16:20:58.986Z,4.80
2023-11-21T16:23:32.647Z,5.10
2023-11-21T16:26:06.238Z,4.60
2023-11-21T16:28:37.296Z,4.60
2023-11-21T16:31:08.772Z,4.20
2023-11-21T16:33:40.241Z,5.40
2023-11-21T16:36:12.202Z,4.20
2023-11-21T16:38:44.280Z,4.60
2023-11-21T16:41:19.143Z,5.40
2023-11-21T16:43:50.183Z,4.70
2023-11-21T16:46:21.376Z,5.10
2023-11-21T16:48:52.797Z,4.80
2023-11-21T16:51:23.576Z,4.60
2023-11-21T16:53:54.777Z,4.80
2023-11-21T16:56:27.248Z,4.20
2023-11-21T16:58:58.121Z,4.50
2023-11-21T17:01:30.305Z,4.70
2023-11-21T17:04:01.622Z,4.80
2023-11-21T17:06:33.963Z,4.70
2023-11-21T17:09:05.636Z,5.30
2023-11-21T17:11:38.524Z,4.40
2023-11-21T17:14:10.909Z,4.50
2023-11-21T17:16:43.326Z,4.70
2023-11-21T17:19:15.027Z,4.40
2023-11-21T17:21:46.892Z,4.00
2023-11-21T17:24:18.029Z,4.80
2023-11-21T17:26:49.325Z,5.00
2023-11-21T17:29:22.658Z,4.30
2023-11-21T17:31:54.965Z,4.20
2023-11-21T17:34:26.074Z,4.40
2023-11-21T17:36:57.983Z,4.80
2023-11-21T17:39:31.561Z,4.00
2023-11-21T17:42:02.913Z,4.50
2023-11-21T17:44:34.378Z,4.30
2023-11-21T17:47:06.543Z,5.50
2023-11-21T17:49:37.659Z,3.90
2023-11-21T17:52:09.743Z,4.40
2023-11-21T17:54:41.826Z,3.50
2023-11-21T17:57:14.642Z,3.70
2023-11-21T17:59:48.413Z,3.70
2023-11-21T18:04:52.882Z,4.20
2023-11-21T18:07:24.247Z,3.90
2023-11-21T18:09:55.461Z,4.00
2023-11-21T18:12:26.916Z,4.10
2023-11-21T18:15:01.303Z,3.80
2023-11-21T18:17:33.369Z,3.80
2023-11-21T18:20:04.915Z,4.50
2023-11-21T18:22:37.852Z,4.00
2023-11-21T18:25:09.977Z,3.60
2023-11-21T18:27:41.068Z,3.60
2023-11-21T18:30:17.721Z,4.70
2023-11-21T18:32:48.983Z,3.80
2023-11-21T18:35:21.338Z,3.90
2023-11-21T18:37:52.764Z,3.80
2023-11-21T18:40:23.767Z,3.80
2023-11-21T18:42:55.519Z,3.90
2023-11-21T18:45:26.618Z,3.40
2023-11-21T18:47:58.445Z,3.50
2023-11-21T18:50:29.676Z,3.70
2023-11-21T18:53:03.609Z,3.60
2023-11-21T18:55:35.632Z,3.70
2023-11-21T18:58:06.682Z,3.10
2023-11-21T19:00:38.916Z,3.60
2023-11-21T19:03:10.410Z,3.50
2023-11-21T19:05:41.465Z,3.70
2023-11-21T19:08:12.913Z,3.50
2023-11-21T19:10:44.154Z,3.20
2023-11-21T19:13:15.444Z,3.40
2023-11-21T19:15:46.723Z,3.90
2023-11-21T19:18:18.556Z,3.80
2023-11-21T19:20:49.940Z,3.40
2023-11-21T19:23:21.909Z,3.30
2023-11-21T19:25:53.275Z,3.00
2023-11-21T19:28:24.690Z,3.50
2023-11-21T19:30:57.271Z,3.30
2023-11-21T19:33:28.341Z,3.40
2023-11-21T19:35:59.722Z,3.60
2023-11-21T19:38:32.522Z,3.50
2023-11-21T19:41:07.745Z,3.80
2023-11-21T19:43:39.309Z,3.30
2023-11-21T19:46:10.442Z,3.70
2023-11-21T19:48:43.773Z,3.50
2023-11-21T19:51:15.479Z,3.70
2023-11-21T19:53:47.402Z,3.40
2023-11-21T19:56:19.656Z,4.40
2023-11-21T19:58:52.966Z,3.70
2023-11-21T20:01:26.485Z,3.30
2023-11-21T20:04:01.680Z,3.90
2023-11-21T20:06:41.598Z,3.50
2023-11-21T20:09:16.894Z,3.40
2023-11-21T20:11:52.807Z,3.50
2023-11-21T20:14:25.783Z,3.60
2023-11-21T20:19:28.189Z,3.80
2023-11-21T20:22:00.506Z,3.30
2023-11-21T20:24:31.939Z,3.30
2023-11-21T20:27:04.223Z,3.80
2023-11-21T20:29:38.265Z,3.90
2023-11-21T20:32:11.914Z,3.30
2023-11-21T20:34:43.222Z,3.60
2023-11-21T20:37:15.817Z,3.60
2023-11-21T20:39:49.824Z,3.80
2023-11-21T20:42:20.990Z,3.70
2023-11-21T20:44:52.185Z,3.40
2023-11-21T20:47:24.118Z,3.80
2023-11-21T20:49:59.549Z,3.90
2023-11-21T20:52:31.153Z,3.70
2023-11-21T20:55:02.339Z,3.70
2023-11-21T20:57:33.782Z,3.80
2023-11-21T21:00:11.368Z,3.80
2023-11-21T21:02:42.749Z,3.60
2023-11-21T21:05:16.224Z,3.80
2023-11-21T21:07:47.522Z,3.80
2023-11-21T21:10:19.134Z,3.50
2023-11-21T21:12:51.184Z,3.80
2023-11-21T21:15:24.212Z,3.60
2023-11-21T21:17:56.217Z,3.50
2023-11-21T21:20:28.037Z,3.80
2023-11-21T21:22:59.558Z,3.70
2023-11-21T21:25:31.673Z,3.40
2023-11-21T21:28:03.236Z,3.70
2023-11-21T21:30:34.419Z,4.00
2023-11-21T21:33:06.852Z,3.60
2023-11-21T21:35:38.866Z,3.90
2023-11-21T21:38:10.992Z,3.80
2023-11-21T21:40:42.737Z,3.20
2023-11-21T21:43:13.960Z,2.90
2023-11-21T21:45:45.374Z,3.70
2023-11-21T21:48:16.320Z,3.50
2023-11-21T21:50:47.435Z,3.60
2023-11-21T21:53:18.793Z,3.10
2023-11-21T21:55:52.671Z,3.50
2023-11-21T21:58:24.571Z,3.30
2023-11-21T22:00:55.768Z,3.10
2023-11-21T22:03:27.501Z,3.10
2023-11-21T22:05:59.500Z,3.40
2023-11-21T22:08:30.592Z,3.30
2023-11-21T22:11:02.713Z,2.80
2023-11-21T22:13:33.573Z,3.40
2023-11-21T22:16:04.630Z,3.10
2023-11-21T22:18:35.792Z,3.40
2023-11-21T22:21:07.111Z,4.30
2023-11-21T22:23:39.471Z,3.30
2023-11-21T22:26:10.345Z,3.40
2023-11-21T22:28:41.132Z,3.10
2023-11-21T22:31:12.021Z,3.30
2023-11-21T22:33:43.508Z,3.80
2023-11-21T22:36:18.098Z,3.10
2023-11-21T22:38:48.864Z,4.00
2023-11-21T22:41:28.533Z,2.90
2023-11-21T22:44:00.123Z,3.50
2023-11-21T22:46:31.215Z,2.70
2023-11-21T22:49:02.832Z,3.20
2023-11-21T22:51:33.629Z,3.30
2023-11-21T22:54:04.548Z,3.00
2023-11-21T22:56:35.908Z,2.70
2023-11-21T22:59:06.940Z,3.30
2023-11-21T23:01:38.117Z,3.10
2023-11-21T23:04:10.018Z,2.80
2023-11-21T23:06:41.802Z,3.00
2023-11-21T23:09:12.943Z,3.00
2023-11-21T23:11:43.771Z,2.80
2023-11-21T23:14:14.764Z,3.30
2023-11-21T23:16:45.590Z,2.40
2023-11-21T23:19:18.432Z,2.80
2023-11-21T23:21:49.458Z,2.70
2023-11-21T23:24:21.510Z,2.60
2023-11-21T23:26:52.689Z,2.80
2023-11-21T23:29:24.349Z,2.70
2023-11-21T23:31:55.290Z,2.70
2023-11-21T23:34:26.201Z,3.20
2023-11-21T23:36:56.981Z,3.00
2023-11-21T23:39:28.460Z,2.80
2023-11-21T23:41:59.421Z,2.20
2023-11-21T23:44:30.156Z,2.90
2023-11-21T23:47:01.469Z,2.60
2023-11-21T23:49:32.430Z,2.30
2023-11-21T23:52:04.050Z,2.90
2023-11-21T23:54:35.660Z,2.50
2023-11-21T23:57:06.980Z,2.40
2023-11-21T23:59:37.825Z,2.60
